createdAt,value
2023-04-18T00:00:30.854Z,247.61
2023-04-18T00:01:30.886Z,247.80
2023-04-18T00:02:31.011Z,246.16
2023-04-18T00:03:31.207Z,249.86
2023-04-18T00:04:31.053Z,249.72
2023-04-18T00:05:30.926Z,249.91
2023-04-18T00:06:30.893Z,249.71
2023-04-18T00:07:30.893Z,250.22
2023-04-18T00:08:30.872Z,245.37
2023-04-18T00:09:30.905Z,247.38
2023-04-18T00:10:30.845Z,244.71
2023-04-18T00:11:30.831Z,244.07
2023-04-18T00:12:30.863Z,244.85
2023-04-18T00:13:30.803Z,245.53
2023-04-18T00:14:30.786Z,246.79
2023-04-18T00:15:30.780Z,245.84
2023-04-18T00:16:30.781Z,245.36
2023-04-18T00:17:30.780Z,242.47
2023-04-18T00:18:30.786Z,246.54
2023-04-18T00:19:30.812Z,244.22
2023-04-18T00:20:30.858Z,244.89
2023-04-18T00:21:30.885Z,245.77
2023-04-18T00:22:30.916Z,246.47
2023-04-18T00:23:30.958Z,244.19
2023-04-18T00:24:30.988Z,245.06
2023-04-18T00:25:31.030Z,248.25
2023-04-18T00:26:31.039Z,245.08
2023-04-18T00:27:31.084Z,246.80
2023-04-18T00:28:31.142Z,245.60
2023-04-18T00:29:31.143Z,244.49
2023-04-18T00:30:31.181Z,248.21
2023-04-18T00:31:31.286Z,248.01
2023-04-18T00:32:31.239Z,245.85
2023-04-18T00:33:31.257Z,244.16
2023-04-18T00:34:31.288Z,247.26
2023-04-18T00:35:31.323Z,245.58
2023-04-18T00:36:31.384Z,244.44
2023-04-18T00:37:31.369Z,245.86
2023-04-18T00:38:31.417Z,241.01
2023-04-18T00:39:31.435Z,240.84
2023-04-18T00:40:31.474Z,244.07
2023-04-18T00:41:31.497Z,243.74
2023-04-18T00:42:31.524Z,243.86
2023-04-18T00:43:31.562Z,242.67
2023-04-18T00:44:31.578Z,243.61
2023-04-18T00:45:31.618Z,245.73
2023-04-18T00:46:31.694Z,244.12
2023-04-18T00:47:31.689Z,240.49
2023-04-18T00:48:31.718Z,243.73
2023-04-18T00:49:31.739Z,246.84
2023-04-18T00:50:31.790Z,242.72
2023-04-18T00:51:31.798Z,245.13
2023-04-18T00:52:31.837Z,243.78
2023-04-18T00:53:31.866Z,246.80
2023-04-18T00:54:31.895Z,244.84
2023-04-18T00:55:31.937Z,247.52
2023-04-18T00:56:31.959Z,249.42
2023-04-18T00:57:31.977Z,241.66
2023-04-18T00:58:32.011Z,243.69
2023-04-18T00:59:32.047Z,245.35
2023-04-18T01:00:32.088Z,246.09
2023-04-18T01:01:32.113Z,242.65
2023-04-18T01:02:32.220Z,246.82
2023-04-18T01:03:32.261Z,248.11
2023-04-18T01:04:32.298Z,248.03
2023-04-18T01:05:32.265Z,249.60
2023-04-18T01:06:32.267Z,244.08
2023-04-18T01:07:32.303Z,249.45
2023-04-18T01:08:32.341Z,244.50
2023-04-18T01:09:32.390Z,247.04
2023-04-18T01:10:32.420Z,246.19
2023-04-18T01:11:32.424Z,244.57
2023-04-18T01:12:32.458Z,246.79
2023-04-18T01:13:32.484Z,244.01
2023-04-18T01:14:32.526Z,248.75
2023-04-18T01:15:32.620Z,246.02
2023-04-18T01:16:32.598Z,244.45
2023-04-18T01:17:32.648Z,245.77
2023-04-18T01:18:32.656Z,249.86
2023-04-18T01:19:32.697Z,245.85
2023-04-18T01:20:32.727Z,243.17
2023-04-18T01:21:32.761Z,246.25
2023-04-18T01:22:32.795Z,247.93
2023-04-18T01:23:32.819Z,249.74
2023-04-18T01:24:32.855Z,245.87
2023-04-18T01:25:32.921Z,245.46
2023-04-18T01:26:32.925Z,247.90
2023-04-18T01:27:32.958Z,247.70
2023-04-18T01:28:32.986Z,242.91
2023-04-18T01:29:33.025Z,242.81
2023-04-18T01:30:33.070Z,245.11
2023-04-18T01:31:33.141Z,247.13
2023-04-18T01:32:33.192Z,243.43
2023-04-18T01:33:33.165Z,244.83
2023-04-18T01:34:33.210Z,244.33
2023-04-18T01:35:33.251Z,244.21
2023-04-18T01:36:33.279Z,244.59
2023-04-18T01:37:33.320Z,243.20
2023-04-18T01:38:33.341Z,243.97
2023-04-18T01:39:33.379Z,246.73
2023-04-18T01:40:33.418Z,243.49
2023-04-18T01:41:33.447Z,242.37
2023-04-18T01:42:33.480Z,244.68
2023-04-18T01:43:33.524Z,243.43
2023-04-18T01:44:33.554Z,242.56
2023-04-18T01:45:33.596Z,245.65
2023-04-18T01:46:33.638Z,245.86
2023-04-18T01:47:33.680Z,245.08
2023-04-18T01:48:34.066Z,241.37
2023-04-18T01:49:33.753Z,246.69
2023-04-18T01:50:33.785Z,243.93
2023-04-18T01:51:33.805Z,244.57
2023-04-18T01:52:33.842Z,246.57
2023-04-18T01:53:33.875Z,243.19
2023-04-18T01:54:33.907Z,244.41
2023-04-18T01:55:33.945Z,244.99
2023-04-18T01:56:33.994Z,246.29
2023-04-18T01:57:34.009Z,244.98
2023-04-18T01:58:34.075Z,243.24
2023-04-18T01:59:34.093Z,245.46
2023-04-18T02:00:34.136Z,248.41
2023-04-18T02:01:34.171Z,246.29
2023-04-18T02:02:34.319Z,245.40
2023-04-18T02:03:34.400Z,246.08
2023-04-18T02:04:34.266Z,246.19
2023-04-18T02:05:34.314Z,248.36
2023-04-18T02:06:34.343Z,245.83
2023-04-18T02:07:34.373Z,248.35
2023-04-18T02:08:34.419Z,248.19
2023-04-18T02:09:34.457Z,246.00
2023-04-18T02:10:34.515Z,246.39
2023-04-18T02:11:34.548Z,247.24
2023-04-18T02:12:34.568Z,246.63
2023-04-18T02:13:34.596Z,248.44
2023-04-18T02:14:34.642Z,245.86
2023-04-18T02:15:34.676Z,248.99
2023-04-18T02:16:34.745Z,247.05
2023-04-18T02:17:34.858Z,245.04
2023-04-18T02:18:34.812Z,245.10
2023-04-18T02:19:34.854Z,247.01
2023-04-18T02:20:34.903Z,246.46
2023-04-18T02:21:34.951Z,248.78
2023-04-18T02:22:35.014Z,248.31
2023-04-18T02:23:35.021Z,247.12
2023-04-18T02:24:35.083Z,245.53
2023-04-18T02:25:35.097Z,247.41
2023-04-18T02:26:35.161Z,244.75
2023-04-18T02:27:35.175Z,244.88
2023-04-18T02:28:35.226Z,243.95
2023-04-18T02:29:35.264Z,244.44
2023-04-18T02:30:35.316Z,241.70
2023-04-18T02:31:35.380Z,245.77
2023-04-18T02:32:35.439Z,242.66
2023-04-18T02:33:35.382Z,242.81
2023-04-18T02:34:35.359Z,242.98
2023-04-18T02:35:35.352Z,243.71
2023-04-18T02:36:35.333Z,243.00
2023-04-18T02:37:35.324Z,243.75
2023-04-18T02:38:35.316Z,244.60
2023-04-18T02:39:35.302Z,246.93
2023-04-18T02:40:35.326Z,248.49
2023-04-18T02:41:35.315Z,244.90
2023-04-18T02:42:35.279Z,246.96
2023-04-18T02:43:35.283Z,243.54
2023-04-18T02:44:35.277Z,240.38
2023-04-18T02:45:35.323Z,247.15
2023-04-18T02:46:35.289Z,244.57
2023-04-18T02:47:47.005Z,239.96
2023-04-18T02:48:36.418Z,240.25
2023-04-18T02:49:35.256Z,240.49
2023-04-18T02:50:35.269Z,241.60
2023-04-18T02:51:35.256Z,242.95
2023-04-18T02:52:35.307Z,241.23
2023-04-18T02:53:35.240Z,241.52
2023-04-18T02:54:35.233Z,241.77
2023-04-18T02:55:35.239Z,242.25
2023-04-18T02:56:35.249Z,240.61
2023-04-18T02:57:35.223Z,238.45
2023-04-18T02:58:35.215Z,238.76
2023-04-18T02:59:35.189Z,239.34
2023-04-18T03:00:35.186Z,238.83
2023-04-18T03:01:35.268Z,238.86
2023-04-18T03:02:35.330Z,239.63
2023-04-18T03:03:35.298Z,240.40
2023-04-18T03:04:35.147Z,241.60
2023-04-18T03:05:35.136Z,242.13
2023-04-18T03:06:35.136Z,243.79
2023-04-18T03:07:35.107Z,241.71
2023-04-18T03:08:35.092Z,240.63
2023-04-18T03:09:35.113Z,242.17
2023-04-18T03:10:35.087Z,241.46
2023-04-18T03:11:35.083Z,243.44
2023-04-18T03:12:35.122Z,243.67
2023-04-18T03:13:35.167Z,241.43
2023-04-18T03:14:35.213Z,242.27
2023-04-18T03:15:35.298Z,242.88
2023-04-18T03:16:35.330Z,241.43
2023-04-18T03:17:35.390Z,243.94
2023-04-18T03:18:35.405Z,240.25
2023-04-18T03:19:35.472Z,239.64
2023-04-18T03:20:35.499Z,243.21
2023-04-18T03:21:35.569Z,242.26
2023-04-18T03:22:35.603Z,241.46
2023-04-18T03:23:35.650Z,244.51
2023-04-18T03:24:35.706Z,238.50
2023-04-18T03:25:35.744Z,240.95
2023-04-18T03:26:35.800Z,242.75
2023-04-18T03:27:35.842Z,242.15
2023-04-18T03:28:35.901Z,241.74
2023-04-18T03:29:35.934Z,243.04
2023-04-18T03:30:35.992Z,242.26
2023-04-18T03:31:36.064Z,241.20
2023-04-18T03:32:36.075Z,240.93
2023-04-18T03:33:36.121Z,241.92
2023-04-18T03:34:36.175Z,239.72
2023-04-18T03:35:36.203Z,239.54
2023-04-18T03:36:36.232Z,242.34
2023-04-18T03:37:36.265Z,242.52
2023-04-18T03:38:36.301Z,239.31
2023-04-18T03:39:36.340Z,245.44
2023-04-18T03:40:36.487Z,239.72
2023-04-18T03:41:36.422Z,240.36
2023-04-18T03:42:36.459Z,238.97
2023-04-18T03:43:36.539Z,241.23
2023-04-18T03:44:36.549Z,240.49
2023-04-18T03:45:36.574Z,239.96
2023-04-18T03:46:36.683Z,238.19
2023-04-18T03:47:36.732Z,241.20
2023-04-18T03:48:36.837Z,240.92
2023-04-18T03:49:36.841Z,241.48
2023-04-18T03:50:36.829Z,241.75
2023-04-18T03:51:36.897Z,240.53
2023-04-18T03:52:36.922Z,238.66
2023-04-18T03:53:36.920Z,240.85
2023-04-18T03:54:36.962Z,239.76
2023-04-18T03:55:37.012Z,235.81
2023-04-18T03:56:37.056Z,240.76
2023-04-18T03:57:37.099Z,238.65
2023-04-18T03:58:37.152Z,238.21
2023-04-18T03:59:37.183Z,239.44
2023-04-18T04:00:37.252Z,240.84
2023-04-18T04:01:37.262Z,240.94
2023-04-18T04:02:37.368Z,241.26
2023-04-18T04:03:37.393Z,241.48
2023-04-18T04:04:37.214Z,237.54
2023-04-18T04:05:37.179Z,237.42
2023-04-18T04:06:37.155Z,241.96
2023-04-18T04:07:37.131Z,240.77
2023-04-18T04:08:37.135Z,237.33
2023-04-18T04:09:37.116Z,240.31
2023-04-18T04:10:37.104Z,239.03
2023-04-18T04:11:37.143Z,239.95
2023-04-18T04:12:37.213Z,238.70
2023-04-18T04:13:37.236Z,239.40
2023-04-18T04:14:37.293Z,234.32
2023-04-18T04:15:37.325Z,237.92
2023-04-18T04:16:37.400Z,239.41
2023-04-18T04:17:37.447Z,239.78
2023-04-18T04:18:37.462Z,236.23
2023-04-18T04:19:37.500Z,237.88
2023-04-18T04:20:37.536Z,234.47
2023-04-18T04:21:37.577Z,238.02
2023-04-18T04:22:37.638Z,237.95
2023-04-18T04:23:37.660Z,241.67
2023-04-18T04:24:37.709Z,235.33
2023-04-18T04:25:37.763Z,236.63
2023-04-18T04:26:37.791Z,238.69
2023-04-18T04:27:37.840Z,234.40
2023-04-18T04:28:37.880Z,233.88
2023-04-18T04:29:37.873Z,234.02
2023-04-18T04:30:37.893Z,234.74
2023-04-18T04:31:37.887Z,235.73
2023-04-18T04:32:37.863Z,236.60
2023-04-18T04:33:37.821Z,234.00
2023-04-18T04:34:37.810Z,239.13
2023-04-18T04:35:37.890Z,240.67
2023-04-18T04:36:37.779Z,235.53
2023-04-18T04:37:37.758Z,238.10
2023-04-18T04:38:37.749Z,236.67
2023-04-18T04:39:37.737Z,238.89
2023-04-18T04:40:37.766Z,237.74
2023-04-18T04:41:37.805Z,237.55
2023-04-18T04:42:37.867Z,239.20
2023-04-18T04:43:37.908Z,235.12
2023-04-18T04:44:37.973Z,238.41
2023-04-18T04:45:38.044Z,237.68
2023-04-18T04:46:38.037Z,239.59
2023-04-18T04:47:38.119Z,239.75
2023-04-18T04:48:38.123Z,234.21
2023-04-18T04:49:38.157Z,236.19
2023-04-18T04:50:38.230Z,238.49
2023-04-18T04:51:38.257Z,237.75
2023-04-18T04:52:38.316Z,237.27
2023-04-18T04:53:38.360Z,240.94
2023-04-18T04:54:38.403Z,237.15
2023-04-18T04:55:38.474Z,239.34
2023-04-18T04:56:38.561Z,240.99
2023-04-18T04:57:38.593Z,241.30
2023-04-18T04:58:38.640Z,237.17
2023-04-18T04:59:38.682Z,237.91
2023-04-18T05:00:38.746Z,240.29
2023-04-18T05:01:38.919Z,241.64
2023-04-18T05:02:38.929Z,240.81
2023-04-18T05:03:38.963Z,240.96
2023-04-18T05:04:39.019Z,241.03
2023-04-18T05:05:38.817Z,241.65
2023-04-18T05:06:40.233Z,239.69
2023-04-18T05:07:38.786Z,239.69
2023-04-18T05:08:38.773Z,240.82
2023-04-18T05:09:38.762Z,239.01
2023-04-18T05:10:38.749Z,236.24
2023-04-18T05:11:38.747Z,236.52
2023-04-18T05:12:38.734Z,236.65
2023-04-18T05:13:38.808Z,234.53
2023-04-18T05:14:38.840Z,241.88
2023-04-18T05:15:38.878Z,237.28
2023-04-18T05:16:38.941Z,238.97
2023-04-18T05:17:39.007Z,240.47
2023-04-18T05:18:39.067Z,237.23
2023-04-18T05:19:39.094Z,239.56
2023-04-18T05:20:39.111Z,237.16
2023-04-18T05:21:39.237Z,238.63
2023-04-18T05:22:39.208Z,240.94
2023-04-18T05:23:39.261Z,239.01
2023-04-18T05:24:39.305Z,239.34
2023-04-18T05:25:39.337Z,240.99
2023-04-18T05:26:39.368Z,241.38
2023-04-18T05:27:39.410Z,240.76
2023-04-18T05:28:39.474Z,240.11
2023-04-18T05:29:39.498Z,242.51
2023-04-18T05:30:39.650Z,236.20
2023-04-18T05:31:39.591Z,239.75
2023-04-18T05:32:39.748Z,241.85
2023-04-18T05:33:39.654Z,236.42
2023-04-18T05:34:39.691Z,236.92
2023-04-18T05:35:39.737Z,238.81
2023-04-18T05:36:39.724Z,238.84
2023-04-18T05:37:39.709Z,239.37
2023-04-18T05:38:39.671Z,239.86
2023-04-18T05:39:39.664Z,240.08
2023-04-18T05:40:39.679Z,240.19
2023-04-18T05:41:39.635Z,239.19
2023-04-18T05:42:39.646Z,239.30
2023-04-18T05:43:39.620Z,239.58
2023-04-18T05:44:39.631Z,240.10
2023-04-18T05:45:39.596Z,240.53
2023-04-18T05:46:39.653Z,241.40
2023-04-18T05:47:39.630Z,237.86
2023-04-18T05:48:39.602Z,238.40
2023-04-18T05:49:39.587Z,241.14
2023-04-18T05:50:39.589Z,238.47
2023-04-18T05:51:39.580Z,239.05
2023-04-18T05:52:39.553Z,239.35
2023-04-18T05:53:39.628Z,239.38
2023-04-18T05:54:39.564Z,236.71
2023-04-18T05:55:39.687Z,238.42
2023-04-18T05:56:39.661Z,238.98
2023-04-18T05:57:39.701Z,240.63
2023-04-18T05:58:39.768Z,239.45
2023-04-18T05:59:39.772Z,238.78
2023-04-18T06:00:39.868Z,236.40
2023-04-18T06:01:39.847Z,237.95
2023-04-18T06:02:39.986Z,238.82
2023-04-18T06:03:40.158Z,237.86
2023-04-18T06:04:40.196Z,237.41
2023-04-18T06:05:40.093Z,240.17
2023-04-18T06:06:40.030Z,238.50
2023-04-18T06:07:40.084Z,238.44
2023-04-18T06:08:40.135Z,239.29
2023-04-18T06:09:41.171Z,241.37
2023-04-18T06:10:40.197Z,241.80
2023-04-18T06:11:40.260Z,239.42
2023-04-18T06:12:40.282Z,240.99
2023-04-18T06:13:40.334Z,241.16
2023-04-18T06:14:40.320Z,241.11
2023-04-18T06:15:41.144Z,240.73
2023-04-18T06:16:40.314Z,242.87
2023-04-18T06:17:40.304Z,242.80
2023-04-18T06:18:40.635Z,240.20
2023-04-18T06:19:40.302Z,240.28
2023-04-18T06:20:40.295Z,240.42
2023-04-18T06:21:40.257Z,240.46
2023-04-18T06:22:40.205Z,241.16
2023-04-18T06:23:40.183Z,241.72
2023-04-18T06:24:40.166Z,242.31
2023-04-18T06:25:40.168Z,242.83
2023-04-18T06:26:40.187Z,241.96
2023-04-18T06:27:40.160Z,239.82
2023-04-18T06:28:40.161Z,240.07
2023-04-18T06:29:40.139Z,240.27
2023-04-18T06:30:40.162Z,239.82
2023-04-18T06:31:40.185Z,241.23
2023-04-18T06:32:40.127Z,240.40
2023-04-18T06:33:40.112Z,240.96
2023-04-18T06:34:40.105Z,243.11
2023-04-18T06:35:40.073Z,243.27
2023-04-18T06:36:40.171Z,239.30
2023-04-18T06:37:40.051Z,244.81
2023-04-18T06:38:40.045Z,242.11
2023-04-18T06:39:40.011Z,245.15
2023-04-18T06:40:40.006Z,242.70
2023-04-18T06:41:39.984Z,243.12
2023-04-18T06:42:39.988Z,242.13
2023-04-18T06:43:49.172Z,245.17
2023-04-18T06:44:41.047Z,245.35
2023-04-18T06:45:40.005Z,245.50
2023-04-18T06:46:39.981Z,242.78
2023-04-18T06:47:39.993Z,242.88
2023-04-18T06:48:39.970Z,245.42
2023-04-18T06:49:39.940Z,246.49
2023-04-18T06:50:39.970Z,242.87
2023-04-18T06:51:39.959Z,244.14
2023-04-18T06:52:40.077Z,243.14
2023-04-18T06:53:39.912Z,244.18
2023-04-18T06:54:39.876Z,243.68
2023-04-18T06:55:39.874Z,244.77
2023-04-18T06:56:39.855Z,243.64
2023-04-18T06:57:39.886Z,245.28
2023-04-18T06:58:39.867Z,243.75
2023-04-18T06:59:39.841Z,242.01
2023-04-18T07:00:39.826Z,242.25
2023-04-18T07:01:39.838Z,243.02
2023-04-18T07:02:39.938Z,243.71
2023-04-18T07:03:39.843Z,244.71
2023-04-18T07:04:39.952Z,246.85
2023-04-18T07:05:39.754Z,243.61
2023-04-18T07:06:39.749Z,245.07
2023-04-18T07:07:39.765Z,243.65
2023-04-18T07:08:39.736Z,240.85
2023-04-18T07:09:39.718Z,240.44
2023-04-18T07:10:39.697Z,240.53
2023-04-18T07:11:39.681Z,239.16
2023-04-18T07:12:39.661Z,239.57
2023-04-18T07:13:39.663Z,235.88
2023-04-18T07:14:39.662Z,239.02
2023-04-18T07:15:39.636Z,234.81
2023-04-18T07:16:39.659Z,232.25
2023-04-18T07:17:39.606Z,227.28
2023-04-18T07:18:39.599Z,222.19
2023-04-18T07:19:39.574Z,221.50
2023-04-18T07:20:39.642Z,219.30
2023-04-18T07:21:39.540Z,217.67
2023-04-18T07:22:39.500Z,210.75
2023-04-18T07:23:39.541Z,206.94
2023-04-18T07:24:39.569Z,203.33
2023-04-18T07:25:39.579Z,200.62
2023-04-18T07:26:39.629Z,199.08
2023-04-18T07:27:39.670Z,198.76
2023-04-18T07:28:39.717Z,193.58
2023-04-18T07:29:39.768Z,201.06
2023-04-18T07:30:39.817Z,203.12
2023-04-18T07:31:39.788Z,209.77
2023-04-18T07:32:39.776Z,209.40
2023-04-18T07:33:39.754Z,208.61
2023-04-18T07:34:39.801Z,202.42
2023-04-18T07:35:39.779Z,200.94
2023-04-18T07:36:40.685Z,208.60
2023-04-18T07:37:39.768Z,204.50
2023-04-18T07:38:39.715Z,203.45
2023-04-18T07:39:39.716Z,207.40
2023-04-18T07:40:39.808Z,205.51
2023-04-18T07:41:39.729Z,206.71
2023-04-18T07:42:39.679Z,202.31
2023-04-18T07:43:39.674Z,205.87
2023-04-18T07:44:39.680Z,205.99
2023-04-18T07:45:39.654Z,200.23
2023-04-18T07:46:39.693Z,200.88
2023-04-18T07:47:39.957Z,192.51
2023-04-18T07:48:39.605Z,185.01
2023-04-18T07:49:39.569Z,180.30
2023-04-18T07:50:39.603Z,178.95
2023-04-18T07:51:39.502Z,174.86
2023-04-18T07:52:39.663Z,171.72
2023-04-18T07:53:39.469Z,165.08
2023-04-18T07:54:39.581Z,166.24
2023-04-18T07:55:39.484Z,172.26
2023-04-18T07:56:39.502Z,164.47
2023-04-18T07:57:39.514Z,163.85
2023-04-18T07:58:39.565Z,156.38
2023-04-18T07:59:39.579Z,156.60
2023-04-18T08:00:39.623Z,150.96
2023-04-18T08:01:39.738Z,149.28
2023-04-18T08:02:39.926Z,155.07
2023-04-18T08:03:39.860Z,152.05
2023-04-18T08:04:39.915Z,146.64
2023-04-18T08:05:39.988Z,152.21
2023-04-18T08:06:39.884Z,158.17
2023-04-18T08:07:39.910Z,156.33
2023-04-18T08:08:39.950Z,152.79
2023-04-18T08:09:40.023Z,148.19
2023-04-18T08:10:40.130Z,157.65
2023-04-18T08:11:40.075Z,162.49
2023-04-18T08:12:40.209Z,167.06
2023-04-18T08:13:40.178Z,160.30
2023-04-18T08:14:40.241Z,165.45
2023-04-18T08:15:40.284Z,167.59
2023-04-18T08:16:40.353Z,168.33
2023-04-18T08:17:40.439Z,167.91
2023-04-18T08:18:40.440Z,174.07
2023-04-18T08:19:40.409Z,174.10
2023-04-18T08:20:40.382Z,174.23
2023-04-18T08:21:40.359Z,168.96
2023-04-18T08:22:53.772Z,168.16
2023-04-18T08:23:41.335Z,174.15
2023-04-18T08:24:41.685Z,174.14
2023-04-18T08:25:41.268Z,174.27
2023-04-18T08:26:40.230Z,173.41
2023-04-18T08:27:40.235Z,167.71
2023-04-18T08:28:40.205Z,170.97
2023-04-18T08:29:40.275Z,167.53
2023-04-18T08:30:40.159Z,164.81
2023-04-18T08:31:40.207Z,156.43
2023-04-18T08:32:40.194Z,160.22
2023-04-18T08:33:40.108Z,163.13
2023-04-18T08:34:40.090Z,160.16
2023-04-18T08:35:40.086Z,163.04
2023-04-18T08:36:40.096Z,161.76
2023-04-18T08:37:40.115Z,160.51
2023-04-18T08:38:40.115Z,161.85
2023-04-18T08:39:40.155Z,154.41
2023-04-18T08:40:40.207Z,152.20
2023-04-18T08:41:41.203Z,153.84
2023-04-18T08:42:40.311Z,153.29
2023-04-18T08:43:40.372Z,153.15
2023-04-18T08:44:40.476Z,154.05
2023-04-18T08:45:40.581Z,155.46
2023-04-18T08:46:40.521Z,156.33
2023-04-18T08:47:40.602Z,157.53
2023-04-18T08:48:40.612Z,159.88
2023-04-18T08:49:40.686Z,158.63
2023-04-18T08:50:40.734Z,160.55
2023-04-18T08:51:40.786Z,160.68
2023-04-18T08:52:40.657Z,160.56
2023-04-18T08:53:40.668Z,161.23
2023-04-18T08:54:40.627Z,156.23
2023-04-18T08:55:40.671Z,160.20
2023-04-18T08:56:40.569Z,156.95
2023-04-18T08:57:40.541Z,155.92
2023-04-18T08:58:40.540Z,153.97
2023-04-18T08:59:40.537Z,151.42
2023-04-18T09:00:40.629Z,149.67
2023-04-18T09:01:40.611Z,146.40
2023-04-18T09:02:40.712Z,144.84
2023-04-18T09:03:40.769Z,139.53
2023-04-18T09:04:40.718Z,139.25
2023-04-18T09:05:40.680Z,139.29
2023-04-18T09:06:40.651Z,138.00
2023-04-18T09:07:40.629Z,139.27
2023-04-18T09:08:40.622Z,138.23
2023-04-18T09:09:40.588Z,136.08
2023-04-18T09:10:40.576Z,133.04
2023-04-18T09:11:40.546Z,133.38
2023-04-18T09:12:40.526Z,129.10
2023-04-18T09:13:40.525Z,128.04
2023-04-18T09:14:40.479Z,129.71
2023-04-18T09:15:40.485Z,130.27
2023-04-18T09:16:40.541Z,128.51
2023-04-18T09:17:40.443Z,129.79
2023-04-18T09:18:40.432Z,125.22
2023-04-18T09:19:40.432Z,124.75
2023-04-18T09:20:40.465Z,127.49
2023-04-18T09:21:40.528Z,123.29
2023-04-18T09:22:40.545Z,123.81
2023-04-18T09:23:40.613Z,120.78
2023-04-18T09:24:40.640Z,115.37
2023-04-18T09:25:42.148Z,116.78
2023-04-18T09:26:40.658Z,117.01
2023-04-18T09:27:40.671Z,110.47
2023-04-18T09:28:40.623Z,113.41
2023-04-18T09:29:40.601Z,116.31
2023-04-18T09:30:40.683Z,117.19
2023-04-18T09:31:40.561Z,118.97
2023-04-18T09:32:40.571Z,117.53
2023-04-18T09:33:40.529Z,118.82
2023-04-18T09:34:40.496Z,116.17
2023-04-18T09:35:40.487Z,114.11
2023-04-18T09:36:40.473Z,114.12
2023-04-18T09:37:40.571Z,113.56
2023-04-18T09:38:40.394Z,104.94
2023-04-18T09:39:40.370Z,110.12
2023-04-18T09:40:40.358Z,116.45
2023-04-18T09:41:40.348Z,113.33
2023-04-18T09:42:40.300Z,114.11
2023-04-18T09:43:40.269Z,114.76
2023-04-18T09:44:40.242Z,115.12
2023-04-18T09:45:40.716Z,116.29
2023-04-18T09:46:40.375Z,113.73
2023-04-18T09:47:40.209Z,114.04
2023-04-18T09:48:40.252Z,109.90
2023-04-18T09:49:40.127Z,111.58
2023-04-18T09:50:40.168Z,111.44
2023-04-18T09:51:40.110Z,111.74
2023-04-18T09:52:40.110Z,109.83
2023-04-18T09:53:40.041Z,109.34
2023-04-18T09:54:40.024Z,110.05
2023-04-18T09:55:40.039Z,110.28
2023-04-18T09:56:40.013Z,100.97
2023-04-18T09:57:40.002Z,107.04
2023-04-18T09:58:40.060Z,108.09
2023-04-18T09:59:40.068Z,108.58
2023-04-18T10:00:40.261Z,109.73
2023-04-18T10:01:40.181Z,106.39
2023-04-18T10:02:40.256Z,104.71
2023-04-18T10:03:40.266Z,98.98
2023-04-18T10:04:40.379Z,104.55
2023-04-18T10:05:40.338Z,102.92
2023-04-18T10:06:40.357Z,104.39
2023-04-18T10:07:41.210Z,103.73
2023-04-18T10:08:40.287Z,89.00
2023-04-18T10:09:40.289Z,94.50
2023-04-18T10:10:40.280Z,93.76
2023-04-18T10:11:40.236Z,96.65
2023-04-18T10:12:40.192Z,95.87
2023-04-18T10:13:40.164Z,94.65
2023-04-18T10:14:40.130Z,91.40
2023-04-18T10:15:41.715Z,91.93
2023-04-18T10:16:40.206Z,91.93
2023-04-18T10:17:44.598Z,89.40
2023-04-18T10:18:41.060Z,89.57
2023-04-18T10:19:40.028Z,88.49
2023-04-18T10:20:40.052Z,90.64
2023-04-18T10:21:40.006Z,91.81
2023-04-18T10:22:39.968Z,90.87
2023-04-18T10:23:39.975Z,88.33
2023-04-18T10:24:39.906Z,93.15
2023-04-18T10:25:39.882Z,91.97
2023-04-18T10:26:40.019Z,89.36
2023-04-18T10:27:39.842Z,82.45
2023-04-18T10:28:39.847Z,82.01
2023-04-18T10:29:39.897Z,80.39
2023-04-18T10:30:40.013Z,79.52
2023-04-18T10:31:40.008Z,83.86
2023-04-18T10:32:40.089Z,83.08
2023-04-18T10:33:42.510Z,81.16
2023-04-18T10:34:40.101Z,82.71
2023-04-18T10:35:41.332Z,81.55
2023-04-18T10:36:40.088Z,78.47
2023-04-18T10:37:40.021Z,76.60
2023-04-18T10:38:40.028Z,74.19
2023-04-18T10:39:39.968Z,74.27
2023-04-18T10:40:39.957Z,74.50
2023-04-18T10:41:40.224Z,70.33
2023-04-18T10:42:39.907Z,70.34
2023-04-18T10:43:39.891Z,68.55
2023-04-18T10:44:40.740Z,68.17
2023-04-18T10:45:39.859Z,60.15
2023-04-18T10:46:39.984Z,60.78
2023-04-18T10:47:39.997Z,60.82
2023-04-18T10:48:39.811Z,60.16
2023-04-18T10:49:39.782Z,50.05
2023-04-18T10:50:39.853Z,52.30
2023-04-18T10:51:39.760Z,52.11
2023-04-18T10:52:39.896Z,48.87
2023-04-18T10:53:39.717Z,50.07
2023-04-18T10:54:39.712Z,46.14
2023-04-18T10:55:39.695Z,43.49
2023-04-18T10:56:39.667Z,39.99
2023-04-18T10:57:39.664Z,47.07
2023-04-18T10:58:39.624Z,42.52
2023-04-18T10:59:39.668Z,43.30
2023-04-18T11:00:39.683Z,50.48
2023-04-18T11:01:39.879Z,49.05
2023-04-18T11:02:39.874Z,45.13
2023-04-18T11:03:39.779Z,49.06
2023-04-18T11:04:39.733Z,48.62
2023-04-18T11:05:39.744Z,43.78
2023-04-18T11:06:39.772Z,49.73
2023-04-18T11:07:39.778Z,44.79
2023-04-18T11:08:39.989Z,45.05
2023-04-18T11:09:39.810Z,47.42
2023-04-18T11:10:39.825Z,41.87
2023-04-18T11:11:39.839Z,42.01
2023-04-18T11:12:39.786Z,40.39
2023-04-18T11:13:39.748Z,45.23
2023-04-18T11:14:39.751Z,40.17
2023-04-18T11:15:39.724Z,44.45
2023-04-18T11:16:39.934Z,47.94
2023-04-18T11:17:39.674Z,42.83
2023-04-18T11:18:39.625Z,46.25
2023-04-18T11:19:39.594Z,43.29
2023-04-18T11:20:39.766Z,43.48
2023-04-18T11:21:39.560Z,40.94
2023-04-18T11:22:39.525Z,31.26
2023-04-18T11:23:39.498Z,27.73
2023-04-18T11:24:39.509Z,29.62
2023-04-18T11:25:39.489Z,28.46
2023-04-18T11:26:39.428Z,32.82
2023-04-18T11:27:39.403Z,31.34
2023-04-18T11:28:39.437Z,30.62
2023-04-18T11:29:39.506Z,28.95
2023-04-18T11:30:39.345Z,39.42
2023-04-18T11:31:39.388Z,32.35
2023-04-18T11:32:39.310Z,34.03
2023-04-18T11:33:39.274Z,30.90
2023-04-18T11:34:39.247Z,33.89
2023-04-18T11:35:39.212Z,35.47
2023-04-18T11:36:39.215Z,35.97
2023-04-18T11:37:39.288Z,34.20
2023-04-18T11:38:39.215Z,43.70
2023-04-18T11:39:39.219Z,44.89
2023-04-18T11:40:39.228Z,45.10
2023-04-18T11:41:39.253Z,41.41
2023-04-18T11:42:39.263Z,37.47
2023-04-18T11:43:39.273Z,31.56
2023-04-18T11:44:39.341Z,38.80
2023-04-18T11:45:39.330Z,36.09
2023-04-18T11:46:39.342Z,40.57
2023-04-18T11:47:39.332Z,35.96
2023-04-18T11:48:39.292Z,39.28
2023-04-18T11:49:39.300Z,31.46
2023-04-18T11:50:39.300Z,34.28
2023-04-18T11:51:39.338Z,34.29
2023-04-18T11:52:39.310Z,33.04
2023-04-18T11:53:39.267Z,31.58
2023-04-18T11:54:39.269Z,30.62
2023-04-18T11:55:39.237Z,33.02
2023-04-18T11:56:39.218Z,34.32
2023-04-18T11:57:39.201Z,27.11
2023-04-18T11:58:39.194Z,28.42
2023-04-18T11:59:39.185Z,28.35
2023-04-18T12:00:39.129Z,26.11
2023-04-18T12:01:39.120Z,34.90
2023-04-18T12:02:39.254Z,33.85
2023-04-18T12:03:39.206Z,32.71
2023-04-18T12:04:39.276Z,36.35
2023-04-18T12:05:39.209Z,34.46
2023-04-18T12:06:39.011Z,31.92
2023-04-18T12:07:38.976Z,44.28
2023-04-18T12:08:38.948Z,42.32
2023-04-18T12:09:38.925Z,41.39
2023-04-18T12:10:38.899Z,36.37
2023-04-18T12:11:38.887Z,35.88
2023-04-18T12:12:38.873Z,29.87
2023-04-18T12:13:38.834Z,38.60
2023-04-18T12:14:38.785Z,34.30
2023-04-18T12:15:38.907Z,31.41
2023-04-18T12:16:38.755Z,25.00
2023-04-18T12:17:38.751Z,26.76
2023-04-18T12:18:38.698Z,29.78
2023-04-18T12:19:38.663Z,28.17
2023-04-18T12:20:38.635Z,30.99
2023-04-18T12:21:38.601Z,34.45
2023-04-18T12:22:38.586Z,36.68
2023-04-18T12:23:38.563Z,30.25
2023-04-18T12:24:38.534Z,32.35
2023-04-18T12:25:38.523Z,29.74
2023-04-18T12:26:38.473Z,33.67
2023-04-18T12:27:38.473Z,34.98
2023-04-18T12:28:38.460Z,32.00
2023-04-18T12:29:39.261Z,32.14
2023-04-18T12:30:38.376Z,33.29
2023-04-18T12:31:38.366Z,34.08
2023-04-18T12:32:38.381Z,38.83
2023-04-18T12:33:38.313Z,32.36